Oulan-Bator, Mongolie

19:37 ULAT le 27 février 2015 (GMT +0800)
Buyant-Ukhaa | Change Station
CLOSE
Current Station
Aéroport
Location: Ulaanbaatar,
Altitude: 4364 ft
Stations météo à proximité

Alt. 4364 ft 47.83 °N, 106.78 °E | Updated 7 minutes ago

Mostly Cloudy
Nuageux
16 ° F
Paraît 4 ° F
N
9
Vent Variable Vent de NO

Aujourd'hui
Haut(e) -- | Bas -- ° F
--% Risque de précip.
Hier
Haut(e) -- | Bas -- ° F
Precip. -- pouce
7:38 AM 6:33 PM
Lune gibbeuse croissante, 68% visible
Pression 29.95 pouce
Visibilité 6.2 Miles terrestres
Nuages Peu 3300 ft
Nuageux 10000 ft
Refroidissement éolien 4 ° F
Point de rosée 7 ° F
Humidité 68%
Précipitations 0.00 pouce
Profondeur de la couche neigeuse Non disponible.
UV 0 sur 12
Pollen Non disponible.
Qualité de l'air Non disponible.
Flu Activity Non disponible.
METAR ZMUB 271130Z 32004MPS 280V340 9999 FEW033 BKN100 M09/M14 Q1014 NOSIG RMK QFE653.3 66 NT

More Conditions Fewer Conditions

Pression 29.95 pouce
Visibilité 6.2 Miles terrestres
Nuages Peu 3300 ft
Nuageux 10000 ft
Refroidissement éolien 4 ° F
Point de rosée 7 ° F
Humidité 68%
Précipitations 0.00 pouce
Profondeur de la couche neigeuse Non disponible.
UV 0 sur 12
Pollen Non disponible.
Qualité de l'air Non disponible.
Flu Activity Non disponible.
METAR ZMUB 271130Z 32004MPS 280V340 9999 FEW033 BKN100 M09/M14 Q1014 NOSIG RMK QFE653.3 66 NT

More Conditions Fewer Conditions

10-Day Weather Forecast

Almanac

Astronomie

Feb. 27, 2015 Lever Coucher
Temps réel
Crépuscule civil
Crépuscule nautique
Crépuscule astronomique
Lune
Durée de lumière visible
Longueur du jour
Tomorrow will be .
, % of the Moon is Illuminated

Extrêmes aujourd'hui

Country Highs Country Lows

Community

WunderPhotos

Upload Photos

1,800,656 Photos téléchargées !

WunderBlogs® & News

Nearby

Qualité de l'air

  Qualité de l'air Indice de la qualité de l'air Polluant
Not available.

Épaisseur de neige

Station Depth Altitude

Activité sismique

Ville Distance Mag. Time & Date
Minimum magnitude displayed is 2.5.

Températures des eaux côtières

Lieu Température

Stations météo à proximité